Argyle, Michigan
Current Conditions -  °F | °C
As of 2:38 PM on Friday 24 Oct 2014 (Local Time) from KBAX Reporting Station
Scattered Clouds Scattered Clouds  
Wind Chill: 58°   Ceiling: Unl
Heat Index: 58°   Visibility: 10mi
Dew Point: 48°   Wind: 7mph
Humidity: 69%   Direction: 220°SW
Pressure: 29.97"   Gusts: NA
Location:  43.56°N, 82.94°W
Report Text: KBAX 241838Z AUTO 22006KT 10SM SCT028 14/09 A2997 RMK AO2 T01440087
Loading
Personal Weather Stations






























Interactive Weather Map
Tropical Storm Tracking
New forecast layout! Learn more

10-Day Weather Forecast

Advertisements
Track Severe Weather on mobile